createdAt,value
2023-06-29T00:01:04.723Z,7.35
2023-06-29T00:03:33.307Z,5.60
2023-06-29T00:06:01.282Z,6.28
2023-06-29T00:08:30.050Z,6.35
2023-06-29T00:10:59.118Z,6.05
2023-06-29T00:13:26.758Z,7.00
2023-06-29T00:15:54.424Z,6.07
2023-06-29T00:18:22.100Z,6.07
2023-06-29T00:20:52.517Z,6.28
2023-06-29T00:23:20.426Z,6.28
2023-06-29T00:25:48.318Z,6.75
2023-06-29T00:28:17.703Z,6.10
2023-06-29T00:30:45.378Z,6.80
2023-06-29T00:33:14.197Z,6.68
2023-06-29T00:35:42.151Z,6.63
2023-06-29T00:38:09.958Z,6.80
2023-06-29T00:40:37.621Z,6.60
2023-06-29T00:43:05.264Z,6.05
2023-06-29T00:45:34.742Z,5.55
2023-06-29T00:48:02.710Z,5.80
2023-06-29T00:50:31.047Z,5.75
2023-06-29T00:52:59.286Z,5.88
2023-06-29T00:55:27.152Z,5.85
2023-06-29T00:57:54.886Z,6.13
2023-06-29T01:00:22.562Z,7.20
2023-06-29T01:02:52.538Z,7.03
2023-06-29T01:09:06.886Z,7.20
2023-06-29T01:11:35.074Z,7.43
2023-06-29T01:14:05.509Z,6.22
2023-06-29T01:16:34.446Z,6.20
2023-06-29T01:19:06.477Z,6.95
2023-06-29T01:21:38.743Z,6.65
2023-06-29T01:24:07.667Z,7.00
2023-06-29T01:26:39.749Z,6.53
2023-06-29T01:29:07.402Z,7.00
2023-06-29T01:31:35.086Z,6.50
2023-06-29T01:34:02.950Z,7.78
2023-06-29T01:36:33.978Z,6.85
2023-06-29T01:39:04.873Z,6.65
2023-06-29T01:41:34.700Z,7.57
2023-06-29T01:44:05.233Z,6.47
2023-06-29T01:46:33.661Z,6.10
2023-06-29T01:49:01.690Z,6.40
2023-06-29T01:51:29.598Z,6.30
2023-06-29T01:53:57.307Z,7.47
2023-06-29T01:56:24.954Z,6.80
2023-06-29T01:58:52.581Z,7.57
2023-06-29T02:01:21.665Z,7.40
2023-06-29T02:03:49.931Z,6.82
2023-06-29T02:06:17.662Z,6.90
2023-06-29T02:08:45.985Z,6.93
2023-06-29T02:11:13.974Z,7.05
2023-06-29T02:13:41.716Z,6.32
2023-06-29T02:16:09.425Z,7.00
2023-06-29T02:18:38.485Z,7.07
2023-06-29T02:21:06.560Z,7.27
2023-06-29T02:23:34.194Z,7.53
2023-06-29T02:26:02.084Z,7.00
2023-06-29T02:28:29.991Z,7.40
2023-06-29T02:30:57.631Z,7.43
2023-06-29T02:33:25.322Z,6.47
2023-06-29T02:35:54.327Z,6.93
2023-06-29T02:38:21.985Z,6.20
2023-06-29T02:40:49.602Z,6.28
2023-06-29T02:43:17.286Z,6.45
2023-06-29T02:45:45.405Z,7.13
2023-06-29T02:48:13.921Z,5.97
2023-06-29T02:50:41.539Z,6.57
2023-06-29T02:53:12.280Z,6.57
2023-06-29T02:55:39.978Z,6.50
2023-06-29T02:58:07.607Z,6.55
2023-06-29T03:00:35.233Z,5.75
2023-06-29T03:03:03.213Z,6.10
2023-06-29T03:05:30.958Z,5.57
2023-06-29T03:07:58.635Z,5.80
2023-06-29T03:10:28.126Z,5.88
2023-06-29T03:12:56.256Z,6.07
2023-06-29T03:15:23.888Z,6.00
2023-06-29T03:17:51.611Z,5.75
2023-06-29T03:20:19.414Z,6.45
2023-06-29T03:22:47.083Z,5.82
2023-06-29T03:25:14.688Z,5.15
2023-06-29T03:27:44.012Z,5.38
2023-06-29T03:30:12.640Z,6.10
2023-06-29T03:32:40.254Z,6.00
2023-06-29T03:35:08.712Z,6.75
2023-06-29T03:37:36.382Z,6.40
2023-06-29T03:40:04.016Z,6.10
2023-06-29T03:42:32.032Z,6.07
2023-06-29T03:45:01.201Z,6.10
2023-06-29T03:47:28.953Z,6.28
2023-06-29T03:49:56.671Z,6.40
2023-06-29T03:52:24.343Z,6.32
2023-06-29T03:54:52.064Z,6.30
2023-06-29T03:57:19.743Z,6.17
2023-06-29T03:59:47.405Z,6.25
2023-06-29T04:02:16.679Z,6.07
2023-06-29T04:04:45.025Z,5.88
2023-06-29T04:07:12.695Z,6.75
2023-06-29T04:09:40.343Z,6.32
2023-06-29T04:12:08.813Z,5.82
2023-06-29T04:14:36.524Z,6.50
2023-06-29T04:17:04.324Z,6.68
2023-06-29T04:19:34.068Z,6.90
2023-06-29T04:22:01.922Z,6.25
2023-06-29T04:24:29.571Z,6.10
2023-06-29T04:26:57.401Z,6.15
2023-06-29T04:32:00.345Z,6.22
2023-06-29T04:34:28.039Z,6.03
2023-06-29T04:36:57.886Z,7.00
2023-06-29T04:39:25.672Z,6.55
2023-06-29T04:42:02.303Z,6.65
2023-06-29T04:44:33.910Z,6.20
2023-06-29T04:47:02.270Z,6.00
2023-06-29T04:49:32.972Z,6.07
2023-06-29T04:52:02.253Z,6.32
2023-06-29T04:54:30.207Z,6.68
2023-06-29T04:56:58.102Z,6.07
2023-06-29T04:59:27.080Z,5.83
2023-06-29T05:01:55.086Z,6.28
2023-06-29T05:04:23.247Z,6.25
2023-06-29T05:06:51.002Z,6.87
2023-06-29T05:09:20.658Z,6.63
2023-06-29T05:11:48.506Z,6.78
2023-06-29T05:14:16.449Z,6.13
2023-06-29T05:16:44.267Z,6.28
2023-06-29T05:19:12.060Z,6.60
2023-06-29T05:21:39.978Z,6.18
2023-06-29T05:24:08.429Z,5.67
2023-06-29T05:26:37.546Z,5.93
2023-06-29T05:29:06.351Z,5.90
2023-06-29T05:31:34.682Z,5.97
2023-06-29T05:34:02.629Z,6.07
2023-06-29T05:36:31.018Z,5.78
2023-06-29T05:38:59.056Z,5.93
2023-06-29T05:41:27.033Z,5.60
2023-06-29T05:43:56.153Z,5.53
2023-06-29T05:46:24.151Z,6.50
2023-06-29T05:48:51.929Z,5.50
2023-06-29T05:51:19.782Z,6.25
2023-06-29T05:53:47.694Z,5.73
2023-06-29T05:56:15.726Z,5.32
2023-06-29T05:58:43.614Z,5.70
2023-06-29T06:01:14.122Z,5.78
2023-06-29T06:03:42.435Z,5.15
2023-06-29T06:06:11.035Z,5.80
2023-06-29T06:08:39.016Z,5.43
2023-06-29T06:11:06.739Z,5.50
2023-06-29T06:13:34.513Z,6.38
2023-06-29T06:16:02.447Z,5.63
2023-06-29T06:18:31.539Z,5.20
2023-06-29T06:20:59.210Z,6.00
2023-06-29T06:23:26.983Z,4.85
2023-06-29T06:25:54.784Z,5.45
2023-06-29T06:28:22.670Z,5.88
2023-06-29T06:30:51.781Z,5.45
2023-06-29T06:33:21.263Z,5.32
2023-06-29T06:35:50.440Z,5.72
2023-06-29T06:38:18.631Z,5.32
2023-06-29T06:40:46.841Z,6.07
2023-06-29T06:43:16.383Z,5.78
2023-06-29T06:45:44.038Z,5.32
2023-06-29T06:48:12.251Z,5.20
2023-06-29T06:50:40.708Z,4.95
2023-06-29T06:53:09.920Z,5.30
2023-06-29T06:55:37.723Z,5.03
2023-06-29T06:58:05.480Z,5.03
2023-06-29T07:00:33.182Z,4.82
2023-06-29T07:03:01.156Z,4.53
2023-06-29T07:05:29.445Z,4.45
2023-06-29T07:07:57.141Z,4.90
2023-06-29T07:10:26.309Z,4.60
2023-06-29T07:12:54.069Z,5.00
2023-06-29T07:15:21.755Z,4.72
2023-06-29T07:17:58.767Z,5.20
2023-06-29T07:25:30.024Z,5.15
2023-06-29T07:27:58.233Z,4.90
2023-06-29T07:30:26.350Z,4.93
2023-06-29T07:32:54.293Z,4.95
2023-06-29T07:35:22.181Z,4.72
2023-06-29T07:37:49.878Z,4.90
2023-06-29T07:40:17.585Z,4.93
2023-06-29T07:42:46.831Z,4.95
2023-06-29T07:45:14.879Z,4.70
2023-06-29T07:47:42.949Z,4.93
2023-06-29T07:50:11.893Z,4.68
2023-06-29T07:52:39.671Z,4.78
2023-06-29T07:55:07.819Z,5.20
2023-06-29T08:00:15.838Z,5.20
2023-06-29T08:02:44.077Z,5.55
2023-06-29T08:07:43.593Z,5.13
2023-06-29T08:10:12.376Z,6.22
2023-06-29T08:12:40.413Z,6.10
2023-06-29T08:15:09.193Z,6.35
2023-06-29T08:17:44.455Z,7.15
2023-06-29T08:20:13.762Z,5.83
2023-06-29T08:22:44.177Z,6.57
2023-06-29T08:25:11.936Z,6.50
2023-06-29T08:27:40.801Z,6.55
2023-06-29T08:30:09.592Z,7.30
2023-06-29T08:32:37.349Z,6.45
2023-06-29T08:35:08.046Z,6.57
2023-06-29T08:37:35.983Z,7.38
2023-06-29T08:40:07.233Z,6.70
2023-06-29T08:42:35.058Z,7.00
2023-06-29T08:45:02.942Z,7.05
2023-06-29T08:47:33.171Z,7.27
2023-06-29T08:50:04.071Z,7.32
2023-06-29T08:52:35.346Z,7.30
2023-06-29T08:55:04.537Z,7.72
2023-06-29T08:57:33.490Z,8.48
2023-06-29T09:00:01.557Z,9.07
2023-06-29T09:02:30.097Z,8.50
2023-06-29T09:04:59.640Z,8.18
2023-06-29T09:07:27.718Z,8.57
2023-06-29T09:09:56.902Z,9.20
2023-06-29T09:12:25.177Z,8.67
2023-06-29T09:14:53.317Z,8.00
2023-06-29T09:17:23.252Z,8.18
2023-06-29T09:19:55.144Z,8.10
2023-06-29T09:22:23.608Z,8.18
2023-06-29T09:25:02.932Z,8.88
2023-06-29T09:27:38.685Z,9.10
2023-06-29T09:30:07.661Z,8.88
2023-06-29T09:32:38.657Z,9.52
2023-06-29T09:35:09.109Z,13.80
2023-06-29T09:37:37.840Z,9.77
2023-06-29T09:40:10.941Z,11.95
2023-06-29T09:42:42.083Z,8.75
2023-06-29T09:45:12.559Z,11.52
2023-06-29T09:50:19.947Z,9.52
2023-06-29T09:52:49.444Z,9.20
2023-06-29T09:55:41.568Z,11.70
2023-06-29T09:58:11.586Z,9.75
2023-06-29T10:00:40.582Z,9.05
2023-06-29T10:03:08.851Z,18.40
2023-06-29T10:05:37.080Z,9.67
2023-06-29T10:08:06.737Z,11.80
2023-06-29T10:10:35.810Z,9.60
2023-06-29T10:13:05.852Z,13.73
2023-06-29T10:15:37.400Z,10.65
2023-06-29T10:18:09.138Z,9.68
2023-06-29T10:20:37.762Z,9.65
2023-06-29T10:23:06.721Z,10.30
2023-06-29T10:25:36.408Z,9.60
2023-06-29T10:28:04.737Z,9.45
2023-06-29T10:30:47.753Z,10.02
2023-06-29T10:33:17.129Z,9.97
2023-06-29T10:35:53.641Z,9.82
2023-06-29T10:38:21.329Z,10.75
2023-06-29T10:40:49.674Z,10.57
2023-06-29T10:43:19.184Z,9.77
2023-06-29T10:45:48.309Z,9.90
2023-06-29T10:48:31.353Z,10.85
2023-06-29T10:51:08.212Z,10.55
2023-06-29T10:53:36.761Z,11.23
2023-06-29T10:56:04.862Z,10.90
2023-06-29T10:58:38.665Z,10.65
2023-06-29T11:01:21.608Z,11.05
2023-06-29T11:03:49.459Z,10.90
2023-06-29T11:09:13.064Z,10.63
2023-06-29T11:11:41.145Z,10.48
2023-06-29T11:14:15.524Z,10.07
2023-06-29T11:16:44.701Z,11.25
2023-06-29T11:19:13.708Z,16.67
2023-06-29T11:21:42.890Z,33.95
2023-06-29T11:24:10.957Z,14.87
2023-06-29T11:26:38.640Z,12.30
2023-06-29T11:29:08.523Z,12.02
2023-06-29T11:31:36.434Z,12.43
2023-06-29T11:34:07.565Z,19.73
2023-06-29T11:36:37.492Z,13.80
2023-06-29T11:39:08.709Z,16.55
2023-06-29T11:41:37.078Z,12.30
2023-06-29T11:44:05.218Z,11.00
2023-06-29T11:46:36.228Z,12.55
2023-06-29T11:49:05.470Z,11.25
2023-06-29T11:51:35.558Z,11.55
2023-06-29T11:54:03.516Z,13.88
2023-06-29T11:56:36.499Z,10.98
2023-06-29T11:59:08.763Z,10.27
2023-06-29T12:01:37.339Z,11.38
2023-06-29T12:04:06.281Z,10.53
2023-06-29T12:06:36.324Z,10.73
2023-06-29T12:09:12.382Z,10.47
2023-06-29T12:11:40.960Z,11.40
2023-06-29T12:14:10.797Z,10.95
2023-06-29T12:22:42.090Z,19.27
2023-06-29T12:25:12.015Z,9.73
2023-06-29T12:27:39.837Z,34.77
2023-06-29T12:30:08.695Z,13.38
2023-06-29T12:32:36.387Z,12.82
2023-06-29T12:35:04.628Z,18.13
2023-06-29T12:37:32.599Z,14.70
2023-06-29T12:40:01.682Z,10.17
2023-06-29T12:42:29.363Z,10.18
2023-06-29T12:44:57.322Z,10.07
2023-06-29T12:47:25.149Z,10.57
2023-06-29T12:49:53.154Z,8.88
2023-06-29T12:52:20.907Z,10.82
2023-06-29T12:54:53.275Z,9.68
2023-06-29T12:57:26.946Z,9.40
2023-06-29T12:59:55.319Z,8.93
2023-06-29T13:02:23.627Z,9.73
2023-06-29T13:04:51.516Z,10.27
2023-06-29T13:07:20.852Z,16.77
2023-06-29T13:09:49.921Z,13.65
2023-06-29T13:12:17.586Z,10.23
2023-06-29T13:14:47.859Z,12.85
2023-06-29T13:17:16.239Z,12.23
2023-06-29T13:19:46.416Z,10.80
2023-06-29T13:22:14.085Z,12.75
2023-06-29T13:24:41.978Z,11.03
2023-06-29T13:27:09.830Z,10.57
2023-06-29T13:29:37.706Z,11.30
2023-06-29T13:32:07.565Z,11.13
2023-06-29T13:34:35.541Z,11.38
2023-06-29T13:37:03.595Z,10.55
2023-06-29T13:39:31.488Z,9.85
2023-06-29T13:41:59.182Z,9.83
2023-06-29T13:44:27.404Z,10.32
2023-06-29T13:46:55.339Z,10.93
2023-06-29T13:49:24.403Z,10.52
2023-06-29T13:51:52.059Z,10.73
2023-06-29T13:54:19.837Z,9.70
2023-06-29T13:56:48.006Z,9.57
2023-06-29T13:59:15.736Z,10.65
2023-06-29T14:01:43.474Z,10.25
2023-06-29T14:04:12.800Z,11.02
2023-06-29T14:06:43.897Z,9.85
2023-06-29T14:09:13.133Z,10.10
2023-06-29T14:11:41.171Z,9.87
2023-06-29T14:14:09.493Z,9.40
2023-06-29T14:16:37.341Z,10.38
2023-06-29T14:19:05.267Z,9.50
2023-06-29T14:21:33.203Z,9.80
2023-06-29T14:24:02.269Z,9.68
2023-06-29T14:26:30.190Z,9.85
2023-06-29T14:28:58.254Z,9.98
2023-06-29T14:31:25.951Z,9.68
2023-06-29T14:33:53.820Z,9.23
2023-06-29T14:36:21.537Z,9.57
2023-06-29T14:38:50.505Z,9.50
2023-06-29T14:41:20.792Z,9.50
2023-06-29T14:43:48.799Z,9.13
2023-06-29T14:46:16.485Z,9.25
2023-06-29T14:48:45.559Z,10.18
2023-06-29T14:51:13.679Z,9.07
2023-06-29T14:53:41.652Z,8.90
2023-06-29T14:56:10.927Z,8.98
2023-06-29T14:58:40.409Z,9.47
2023-06-29T15:01:08.212Z,9.77
2023-06-29T15:03:37.140Z,9.93
2023-06-29T15:06:05.265Z,10.15
2023-06-29T15:08:33.228Z,9.18
2023-06-29T15:11:00.935Z,9.65
2023-06-29T15:13:28.807Z,9.65
2023-06-29T15:15:59.265Z,10.18
2023-06-29T15:18:27.069Z,9.50
2023-06-29T15:20:54.760Z,10.13
2023-06-29T15:23:22.454Z,10.13
2023-06-29T15:25:50.267Z,11.10
2023-06-29T15:28:18.278Z,9.75
2023-06-29T15:30:53.237Z,10.38
2023-06-29T15:33:22.861Z,10.30
2023-06-29T15:35:50.566Z,10.95
2023-06-29T15:38:20.818Z,10.43
2023-06-29T15:40:50.085Z,9.90
2023-06-29T15:46:15.566Z,11.13
2023-06-29T15:48:44.830Z,11.32
2023-06-29T15:51:12.788Z,10.95
2023-06-29T15:53:58.625Z,10.52
2023-06-29T15:56:26.383Z,10.35
2023-06-29T15:58:55.646Z,10.75
2023-06-29T16:01:23.528Z,9.57
2023-06-29T16:03:53.307Z,10.30
2023-06-29T16:06:27.166Z,10.02
2023-06-29T16:08:54.947Z,9.77
2023-06-29T16:14:08.035Z,10.30
2023-06-29T16:16:35.835Z,9.98
2023-06-29T16:19:05.046Z,9.73
2023-06-29T16:21:32.725Z,10.48
2023-06-29T16:24:00.436Z,9.68
2023-06-29T16:26:28.124Z,10.90
2023-06-29T16:28:55.844Z,9.82
2023-06-29T16:31:23.664Z,9.50
2023-06-29T16:33:51.451Z,9.47
2023-06-29T16:36:21.065Z,9.00
2023-06-29T16:38:48.729Z,9.00
2023-06-29T16:41:16.598Z,8.70
2023-06-29T16:43:44.257Z,8.30
2023-06-29T16:46:12.191Z,8.60
2023-06-29T16:48:39.962Z,9.23
2023-06-29T16:51:08.023Z,9.13
2023-06-29T16:53:37.291Z,8.73
2023-06-29T16:56:05.332Z,8.57
2023-06-29T16:58:33.008Z,9.10
2023-06-29T17:01:00.716Z,9.30
2023-06-29T17:03:28.921Z,8.80
2023-06-29T17:05:56.741Z,9.52
2023-06-29T17:08:24.987Z,9.10
2023-06-29T17:10:54.285Z,9.30
2023-06-29T17:13:22.007Z,9.40
2023-06-29T17:15:50.079Z,10.85
2023-06-29T17:18:17.959Z,10.18
2023-06-29T17:20:45.704Z,10.40
2023-06-29T17:23:13.486Z,10.10
2023-06-29T17:25:47.185Z,10.68
2023-06-29T17:28:16.714Z,10.70
2023-06-29T17:30:45.223Z,11.37
2023-06-29T17:33:14.336Z,12.57
2023-06-29T17:35:42.424Z,11.82
2023-06-29T17:38:10.876Z,12.60
2023-06-29T17:40:38.661Z,12.40
2023-06-29T17:43:06.737Z,12.68
2023-06-29T17:45:36.473Z,12.85
2023-06-29T17:48:04.427Z,13.05
2023-06-29T17:50:32.192Z,13.35
2023-06-29T17:52:59.837Z,13.27
2023-06-29T17:55:27.596Z,13.50
2023-06-29T17:57:55.324Z,14.60
2023-06-29T18:03:00.104Z,13.20
2023-06-29T18:05:28.090Z,14.38
2023-06-29T18:07:57.010Z,13.70
2023-06-29T18:10:24.885Z,13.88
2023-06-29T18:12:52.602Z,14.50
2023-06-29T18:15:20.465Z,14.60
2023-06-29T18:17:48.380Z,14.23
2023-06-29T18:20:17.854Z,14.60
2023-06-29T18:22:45.638Z,14.70
2023-06-29T18:25:13.493Z,14.50
2023-06-29T18:27:41.344Z,14.07
2023-06-29T18:30:10.379Z,13.82
2023-06-29T18:32:39.396Z,14.18
2023-06-29T18:35:07.715Z,15.05
2023-06-29T18:37:37.630Z,15.90
2023-06-29T18:40:06.162Z,14.70
2023-06-29T18:42:33.920Z,14.82
2023-06-29T18:45:02.062Z,15.60
2023-06-29T18:47:30.099Z,15.80
2023-06-29T18:49:58.660Z,16.52
2023-06-29T18:52:27.283Z,15.52
2023-06-29T18:54:58.157Z,15.30
2023-06-29T18:57:25.843Z,15.23
2023-06-29T18:59:53.891Z,15.70
2023-06-29T19:02:21.635Z,15.33
2023-06-29T19:04:49.549Z,14.25
2023-06-29T19:07:17.828Z,15.30
2023-06-29T19:09:45.787Z,15.93
2023-06-29T19:12:15.086Z,15.35
2023-06-29T19:14:43.392Z,15.00
2023-06-29T19:17:11.185Z,15.82
2023-06-29T19:19:39.300Z,14.10
2023-06-29T19:22:08.483Z,16.13
2023-06-29T19:24:36.250Z,14.15
2023-06-29T19:27:06.669Z,15.05
2023-06-29T19:29:36.835Z,15.23
2023-06-29T19:32:06.357Z,15.15
2023-06-29T19:34:35.619Z,15.30
2023-06-29T19:37:04.146Z,14.55
2023-06-29T19:39:32.469Z,15.35
2023-06-29T19:42:00.342Z,15.05
2023-06-29T19:44:28.044Z,14.80
2023-06-29T19:46:57.147Z,15.00
2023-06-29T19:49:24.944Z,14.60
2023-06-29T19:51:58.265Z,15.15
2023-06-29T19:54:26.393Z,15.65
2023-06-29T19:56:54.199Z,15.27
2023-06-29T19:59:21.957Z,16.48
2023-06-29T20:01:49.675Z,15.48
2023-06-29T20:04:19.412Z,15.13
2023-06-29T20:06:47.360Z,15.88
2023-06-29T20:09:15.103Z,15.80
2023-06-29T20:11:42.828Z,15.67
2023-06-29T20:14:10.670Z,16.98
2023-06-29T20:16:38.598Z,15.07
2023-06-29T20:19:06.878Z,15.25
2023-06-29T20:21:36.014Z,15.98
2023-06-29T20:24:04.241Z,14.73
2023-06-29T20:26:33.281Z,15.37
2023-06-29T20:29:01.138Z,14.52
2023-06-29T20:31:29.124Z,15.15
2023-06-29T20:33:56.897Z,14.68
2023-06-29T20:36:24.604Z,14.98
2023-06-29T20:38:53.841Z,14.88
2023-06-29T20:41:21.839Z,13.05
2023-06-29T20:43:50.296Z,13.80
2023-06-29T20:46:19.201Z,13.95
2023-06-29T20:48:47.213Z,12.83
2023-06-29T20:51:18.127Z,12.57
2023-06-29T20:53:46.592Z,12.77
2023-06-29T20:56:15.738Z,13.23
2023-06-29T20:58:43.506Z,12.68
2023-06-29T21:01:11.350Z,12.85
2023-06-29T21:03:44.889Z,12.07
2023-06-29T21:06:13.306Z,12.75
2023-06-29T21:08:41.434Z,12.10
2023-06-29T21:11:09.505Z,13.60
2023-06-29T21:13:38.960Z,12.35
2023-06-29T21:16:07.394Z,12.18
2023-06-29T21:18:35.685Z,11.48
2023-06-29T21:21:03.858Z,9.80
2023-06-29T21:23:31.816Z,10.18
2023-06-29T21:26:00.028Z,9.83
2023-06-29T21:28:28.141Z,11.20
2023-06-29T21:30:57.954Z,10.63
2023-06-29T21:33:27.123Z,10.23
2023-06-29T21:35:55.153Z,9.80
2023-06-29T21:38:25.698Z,8.83
2023-06-29T21:40:55.901Z,9.48
2023-06-29T21:43:23.620Z,8.20
2023-06-29T21:45:51.434Z,7.70
2023-06-29T21:48:20.587Z,7.20
2023-06-29T21:50:48.322Z,6.90
2023-06-29T21:53:16.159Z,6.60
2023-06-29T21:55:46.258Z,7.18
2023-06-29T21:58:14.961Z,6.60
2023-06-29T22:00:42.706Z,6.53
2023-06-29T22:03:10.679Z,6.25
2023-06-29T22:05:39.851Z,5.80
2023-06-29T22:08:10.627Z,5.72
2023-06-29T22:10:38.403Z,5.05
2023-06-29T22:13:06.232Z,5.32
2023-06-29T22:15:34.465Z,4.78
2023-06-29T22:18:04.548Z,3.42
2023-06-29T22:20:32.446Z,3.90
2023-06-29T22:23:01.578Z,3.30
2023-06-29T22:25:30.017Z,2.85
2023-06-29T22:31:26.836Z,2.83
2023-06-29T22:33:54.855Z,2.47
2023-06-29T22:36:23.206Z,2.85
2023-06-29T22:38:52.374Z,2.42
2023-06-29T22:41:20.880Z,2.77
2023-06-29T22:43:49.122Z,2.30
2023-06-29T22:46:16.873Z,2.80
2023-06-29T22:48:45.144Z,2.60
2023-06-29T22:51:13.180Z,2.47
2023-06-29T22:53:40.995Z,2.60
2023-06-29T22:56:10.122Z,2.03
2023-06-29T22:58:39.129Z,2.55
2023-06-29T23:01:06.857Z,2.45
2023-06-29T23:03:34.708Z,2.47
2023-06-29T23:06:02.596Z,2.38
2023-06-29T23:08:30.607Z,2.28
2023-06-29T23:10:58.299Z,2.22
2023-06-29T23:13:27.814Z,1.98
2023-06-29T23:15:55.765Z,1.80
2023-06-29T23:18:23.521Z,1.77
2023-06-29T23:20:51.246Z,1.63
2023-06-29T23:23:18.995Z,1.50
2023-06-29T23:25:46.896Z,1.38
2023-06-29T23:28:18.565Z,1.40
2023-06-29T23:31:09.283Z,1.60
2023-06-29T23:33:37.067Z,1.50
2023-06-29T23:36:05.204Z,1.60
2023-06-29T23:38:32.958Z,2.17
2023-06-29T23:41:00.971Z,1.60
2023-06-29T23:43:28.922Z,1.90
2023-06-29T23:45:58.140Z,1.90
2023-06-29T23:48:25.891Z,2.13
2023-06-29T23:50:53.823Z,2.13
2023-06-29T23:53:21.533Z,2.00
2023-06-29T23:55:49.293Z,1.83
2023-06-29T23:58:17.262Z,2.08
